Nearby METAR Reports

 

ENRY - Rygge (nor-Afb), Norway
Distance from station: SØ 12km
Oppdatert: 06/10/2022 13:20
Klart
Klart
 Vind fra SV
Vind: SV 22 km/h
Temperatur: 13°C
Duggpunkt: 6°C
Fuktighet: 63%
Barometer: 1006 hPa
Oversikt: Klart
Visibility: greater than 10 km
2022/10/06 11:20 ENRY 061120Z 22012KT 190V250 CAVOK 13/06 Q1006 NOSIG
ENTO - Torp (civ/Nor-Af, Norway
Distance from station: SV 34km
Oppdatert: 06/10/2022 13:20
Klart
Klart
 Vind fra SV
Vind: SV 31 km/h
Temperatur: 14°C
Duggpunkt: 7°C
Fuktighet: 63%
Barometer: 1006 hPa
Oversikt: Klart
Visibility: greater than 10 km
2022/10/06 11:20 ENTO 061120Z 22017KT CAVOK 14/07 Q1006 TEMPO 22017G27KT
 
ENNO - Notodden, Norway
Distance from station: V 80km
Oppdatert: 06/10/2022 13:20
Klart
Klart
 Vind fra SSV
Vind: SSV 15 km/h
Temperatur: 15°C
Duggpunkt: 5°C
Fuktighet: 51%
Barometer: 1005 hPa
Oversikt: Klart
Visibility: greater than 10 km
2022/10/06 11:20 ENNO 061120Z 21008KT CAVOK 15/05 Q1005
ENGM - Oslo/Gardermoen, Norway
Distance from station: NNØ 88km
Oppdatert: 06/10/2022 13:20
Klart
Klart
 Vind fra SSV
Vind: SSV 20 km/h
Temperatur: 11°C
Duggpunkt: 5°C
Fuktighet: 67%
Barometer: 1003 hPa
Oversikt: Klart
Visibility: greater than 10 km
2022/10/06 11:20 ENGM 061120Z 21011KT CAVOK 11/05 Q1003 NOSIG
 
ESOK - Karlstad North, Sweden
Distance from station: Ø 153km
Oppdatert: 06/10/2022 13:20
Few Clouds
Few Clouds
 Vind fra VSV
Vind: VSV 33 km/h, Vindkast: 54 km/h
Temperatur: 14°C
Duggpunkt: 4°C
Fuktighet: 51%
Barometer: 1005 hPa
Clouds: Few Clouds
Visibility: 10 km
Cloud details: Few Clouds 1128 m
2022/10/06 11:20 ESOK 061120Z 25018G29KT 9999 FEW037 14/04 Q1005
ESST - Torsby, Sweden
Distance from station: ØNØ 154km
Oppdatert: 06/10/2022 13:20
Few Clouds
Few Clouds
 Vind fra SV
Vind: SV 24 km/h, Vindkast: 52 km/h
Temperatur: 12°C
Duggpunkt: 6°C
Fuktighet: 67%
Barometer: 1003 hPa
Clouds: Few Clouds
Visibility: 10 km
Cloud details: Few Clouds 3353 m
2022/10/06 11:20 ESST 061120Z AUTO 23013G28KT 200V260 9999 FEW110/// 12/06 Q1003
 
ESGT - Trollhattan (pvt, Sweden
Distance from station: SØ 159km
Oppdatert: 06/10/2022 13:20
Hovedsaklig skyet
Hovedsaklig skyet
 Vind fra VSV
Vind: VSV 43 km/h, Vindkast: 67 km/h
Temperatur: 14°C
Duggpunkt: 8°C
Fuktighet: 67%
Barometer: 1010 hPa
Clouds: Hovedsaklig skyet
Visibility: 10 km
Cloud details: Hovedsaklig skyet 914 m
Hovedsaklig skyet 1219 m
2022/10/06 11:20 ESGT 061120Z 24023G36KT 210V270 9999 BKN030 BKN040 14/08 Q1010
ESIB - Satenas (swe-Afb, Sweden
Distance from station: SØ 164km
Oppdatert: 06/10/2022 13:20
Delvis skyet
Delvis skyet
 Vind fra VSV
Vind: VSV 37 km/h
Temperatur: 14°C
Duggpunkt: 9°C
Fuktighet: 72%
Barometer: 1009 hPa
Clouds: Delvis skyet
Visibility: 10 km
Cloud details: Few Clouds 732 m
Delvis skyet 884 m
2022/10/06 11:20 ESIB 061120Z 25020KT 9999 FEW024 SCT029TCU 14/09 Q1009
 
ENCN - Kristiansand/Kje, Norway
Distance from station: SV 202km
Oppdatert: 06/10/2022 13:20
Nearby showers, Hovedsaklig skyet
Nearby showers, Hovedsaklig skyet
 Vind fra VSV
Vind: VSV 39 km/h, Vindkast: 57 km/h
Temperatur: 13°C
Duggpunkt: 8°C
Fuktighet: 72%
Barometer: 1010 hPa
Oversikt: Nearby Showers
Clouds: Hovedsaklig skyet
Visibility: 10 km
Cloud details: Few Clouds 610 m
Hovedsaklig skyet 884 m
2022/10/06 11:20 ENCN 061120Z 24021G31KT 9999 VCSH FEW020TCU BKN029 13/08 Q1010
EKSN - Sindal Airport, Denmark
Distance from station: S 217km
Oppdatert: 30/12/2021 14:50
NOT Current
Tåke, Hovedsaklig skyet
Tåke, Hovedsaklig skyet
 Vind fra SV
Vind: SV 26 km/h
Temperatur: 7°C
Wind Chill: 3°C
Duggpunkt: 7°C
Fuktighet: 100%
Barometer: 999 hPa
Oversikt: Tåke
Clouds: Hovedsaklig skyet
Visibility: 5 km
Cloud details: Delvis skyet 183 m
Hovedsaklig skyet 244 m
2021/12/30 13:50 EKSN 301350Z 23014KT 4500 BR SCT006 BKN008 07/07 Q0999
 
ESGG - Goteborg/Landvet, Sweden
Distance from station: SSØ 220km
Oppdatert: 06/10/2022 13:20
Hovedsaklig skyet
Hovedsaklig skyet
 Vind fra VSV
Vind: VSV 33 km/h, Vindkast: 56 km/h
Temperatur: 12°C
Duggpunkt: 10°C
Fuktighet: 88%
Barometer: 1013 hPa
Clouds: Hovedsaklig skyet
Visibility: 10 km
Cloud details: Delvis skyet 488 m
Hovedsaklig skyet 823 m
2022/10/06 11:20 ESGG 061120Z 24018G30KT 9999 SCT016 BKN027 12/10 Q1013
ESGR - Skovde Airport, Sweden
Distance from station: ØSØ 221km
Oppdatert: 31/03/2022 14:50
NOT Current
Noe regn, Overskyet
Noe regn, Overskyet
 Vind fra varies
Vind: varies 0 km/h
Temperatur: 3°C
Duggpunkt: -8°C
Fuktighet: 45%
Barometer: 1011 hPa
Oversikt: Noe regn
Clouds: Overskyet
Visibility: 10 km
Cloud details: Overskyet 1676 m
2022/03/31 12:50 ESGR 311250Z AUTO /////KT 9999 -RA OVC055/// 03/M08 Q1011 REUP
 
ESOE - Orebro (private), Sweden
Distance from station: Ø 252km
Oppdatert: 06/10/2022 13:20
Hovedsaklig skyet
Hovedsaklig skyet
 Vind fra SV
Vind: SV 31 km/h, Vindkast: 56 km/h
Temperatur: 14°C
Duggpunkt: 8°C
Fuktighet: 67%
Barometer: 1005 hPa
Clouds: Hovedsaklig skyet
Visibility: 10 km
Cloud details: Delvis skyet 914 m
Hovedsaklig skyet 1189 m
Hovedsaklig skyet 1402 m
2022/10/06 11:20 ESOE 061120Z AUTO 23017G30KT 190V260 9999 SCT030/// BKN039/// BKN046/// 14/08 Q1005
EKYT - Alborg, Denmark
Distance from station: S 264km
Oppdatert: 06/10/2022 13:20
Delvis skyet
Delvis skyet
 Vind fra VSV
Vind: VSV 50 km/h
Temperatur: 15°C
Duggpunkt: 10°C
Fuktighet: 72%
Barometer: 1015 hPa
Clouds: Delvis skyet
Visibility: 10 km
Cloud details: Few Clouds 1067 m
Delvis skyet 1524 m
2022/10/06 11:20 EKYT 061120Z AUTO 25027KT 9999 FEW035/// SCT050/// 15/10 Q1015
 
ENSG - Sogndal/Haukasen, Norway
Distance from station: NV 269km
Oppdatert: 06/10/2022 13:20
Rain showers, Hovedsaklig skyet
Rain showers, Hovedsaklig skyet
 Vind fra VSV
Vind: VSV 11 km/h
Temperatur: 6°C
Wind Chill: 4°C
Duggpunkt: 5°C
Fuktighet: 93%
Barometer: 1000 hPa
Oversikt: Rain Showers
Clouds: Hovedsaklig skyet
Visibility: 10 km
Cloud details: Delvis skyet 701 m
Hovedsaklig skyet 1036 m
2022/10/06 11:20 ENSG 061120Z 24006KT 9999 SHRA SCT023 BKN034 06/05 Q1000 RMK WIND 3806FT 22019KT
ESGJ - Jonkoping Airpor, Sweden
Distance from station: SØ 273km
Oppdatert: 06/10/2022 13:20
Rain showers, Hovedsaklig skyet
Rain showers, Hovedsaklig skyet
 Vind fra VSV
Vind: VSV 22 km/h
Temperatur: 10°C
Wind Chill: 7°C
Duggpunkt: 10°C
Fuktighet: 100%
Barometer: 1012 hPa
Oversikt: Rain Showers
Clouds: Hovedsaklig skyet
Visibility: 9 km
Cloud details: Hovedsaklig skyet 457 m
2022/10/06 11:20 ESGJ 061120Z 25012KT 9000 SHRA BKN015CB 10/10 Q1012
 
ENZV - Stavanger/Sola(A, Norway
Distance from station: V 292km
Oppdatert: 06/10/2022 13:20
Nearby showers, Hovedsaklig skyet
Nearby showers, Hovedsaklig skyet
 Vind fra VSV
Vind: VSV 43 km/h, Vindkast: 63 km/h
Temperatur: 13°C
Duggpunkt: 9°C
Fuktighet: 77%
Barometer: 1008 hPa
Oversikt: Nearby Showers
Clouds: Hovedsaklig skyet
Visibility: 10 km
Cloud details: Few Clouds 244 m
Delvis skyet 671 m
Hovedsaklig skyet 1189 m
2022/10/06 11:20 ENZV 061120Z 25023G34KT 9999 VCSH FEW008CB SCT022 BKN039 13/09 Q1008 RERA
ESSD - Borlange (swe-Af, Sweden
Distance from station: ØNØ 292km
Oppdatert: 06/10/2022 13:20
Few Clouds
Few Clouds
 Vind fra VSV
Vind: VSV 31 km/h, Vindkast: 52 km/h
Temperatur: 13°C
Duggpunkt: 6°C
Fuktighet: 63%
Barometer: 1001 hPa
Clouds: Few Clouds
Visibility: 10 km
Cloud details: Few Clouds 1036 m
2022/10/06 11:20 ESSD 061120Z 24017G28KT 9999 FEW034 13/06 Q1001
 
ENSO - Stord/Soerstokke, Norway
Distance from station: V 300km
Oppdatert: 06/10/2022 13:20
Nearby showers, Delvis skyet
Nearby showers, Delvis skyet
 Vind fra VSV
Vind: VSV 39 km/h, Vindkast: 57 km/h
Temperatur: 13°C
Duggpunkt: 9°C
Fuktighet: 77%
Barometer: 1005 hPa
Oversikt: Nearby Showers
Clouds: Delvis skyet
Visibility: 10 km
Cloud details: Few Clouds 610 m
Delvis skyet 762 m
2022/10/06 11:20 ENSO 061120Z 24021G31KT 210V270 9999 VCSH FEW020 SCT025TCU 13/09 Q1005
ESCF - Linkoping/Malmen, Sweden
Distance from station: ØSØ 305km
Oppdatert: 06/10/2022 13:20
Noe regn, Showers, Hovedsaklig skyet
Noe regn, Showers, Hovedsaklig skyet
 Vind fra VSV
Vind: VSV 37 km/h, Vindkast: 65 km/h
Temperatur: 13°C
Duggpunkt: 8°C
Fuktighet: 72%
Barometer: 1009 hPa
Oversikt: Noe regn, Showers
Clouds: Hovedsaklig skyet
Visibility: 10 km
Cloud details: Delvis skyet 914 m
Hovedsaklig skyet 1372 m
2022/10/06 11:20 ESCF 061120Z 24020G35KT 9999 -SHRA SCT030TCU BKN045 13/08 Q1009